Briefing drone pour Roche-la-moliere

Rechercher une autre localisation

Conditions de vol :


Nous sommes le : Mercredi 23 juin 2021
Il est 03:17 UTC (05:17 LT)

Lever de soleil : 03:28 UTC (05:28 LT)
Coucher de soleil : 20:01 UTC (22:01 LT)

Météo

L'essentiel des conditions de vol

VIGILANCE MÉTÉO FRANCE - Loire (42)
Vigilance Jaune : Orages
CARTE TEMSI
CARTES DES FRONTS
METAR de LFMH
LFMH 230300Z AUTO 17002KT 2700 BR BKN029 11/10 Q1017

Date d'émission: 23/06/2021
Heure d'émission: 03:00 UTC
Vent: 170° pour 2 KT (4 km/h)
Visibilité horizontale: 2700 m
Plafond :
- Nuages morcelés à 2900ft (884m)
Température: 11 °C
Point de rosée: 10 °C
Humidité: 94%
Pression (QNH): 1017 hPa
Conditions: Brume
TAF de LFMH
LFMH 161901Z 1619/1712 CNL

Conditions prévues :

Heure d'émission : Bulletin éffectué le 16 à 19:00 UTC
Prévision : Valide du 16 a 19:00 UTC au 17 a 12:00 UTC
Nuages : à 0ft (0 m)
WEBCAM POUR ROCHE-LA-MOLIERE

Réglementation

Voler en sécurité

CARTES AERONAUTIQUE 1/500.000
CARTES VAC (LFMH)
SUP AIP




Chargement des AIP...
NOTAM (ROCHE-LA-MOLIERE + Terrain à proximité / FIR )




Chargement des NOTAMS...
CONTACT PREFECTURE 42


Avertissement : Les données mises à disposition sont indicatives. Oxygène Drone ne pourra être tenu responsable de dégâts causés aux biens et aux personnes.